Time;durP1;ratioP1;P1;durP2;ratioP2;P2;SDS_P1;SDS_P2;PMS_P1;PMS_P2;Temp;Humidity;BMP_temperature;BMP_pressure;BME280_temperature;BME280_humidity;BME280_pressure;Samples;Min_cycle;Max_cycle;Signal;HPM_P1;HPM_P2
2023/04/05 04:44:13;;;;;;;;;;;;;;;8.10;100.00;99283.66;110711;1245;22488;-46
2023/04/05 04:46:59;;;;;;;;;;;;;;;8.16;100.00;99279.96;112479;1245;22425;-55
2023/04/05 04:50:03;;;;;;;;;;;;;;;8.27;100.00;99277.48;112348;1245;22611;-45
2023/04/05 04:52:32;;;;;;;;;;;;;;;8.35;100.00;99272.91;111959;1245;22568;-45
2023/04/05 04:55:01;;;;;;;;;;;;;;;8.43;100.00;99277.38;110405;1245;22489;-45
2023/04/05 04:57:28;;;;;;;;;;;;;;;8.51;100.00;99282.38;111441;1245;22482;-54
2023/04/05 04:59:56;;;;;;;;;;;;;;;8.58;100.00;99284.23;112880;1245;22466;-44
2023/04/05 05:02:23;;;;;;;;;;;;;;;8.64;100.00;99281.39;111814;1245;22627;-44
2023/04/05 05:04:50;;;;;;;;;;;;;;;8.70;100.00;99277.69;110566;1245;22485;-45
2023/04/05 05:07:17;;;;;;;;;;;;;;;8.74;100.00;99276.27;110433;1245;24230;-54
2023/04/05 05:09:44;;;;;;;;;;;;;;;8.78;100.00;99275.70;112641;1245;22445;-54
2023/04/05 05:12:12;;;;;;;;;;;;;;;8.83;100.00;99272.54;111212;1245;22413;-54
2023/04/05 05:14:40;;;;;;;;;;;;;;;8.88;100.00;99274.92;113076;1245;22507;-54
2023/04/05 05:17:07;;;;;;;;;;;;;;;8.93;100.00;99272.09;111734;1245;22560;-54
2023/04/05 05:19:35;;;;;;;;;;;;;;;8.99;100.00;99275.52;111609;1245;25170;-53
2023/04/05 05:22:02;;;;;;;;;;;;;;;9.05;100.00;99275.81;113480;1245;23095;-45
2023/04/05 05:24:29;;;;;;;;;;;;;;;9.12;100.00;99270.34;112409;1245;22506;-46
2023/04/05 05:26:57;;;;;;;;;;;;;;;9.19;100.00;99270.63;111468;1245;23200;-46
2023/04/05 05:29:31;;;;;;;;;;;;;;;9.26;100.00;99273.14;112817;1245;23341;-55
2023/04/05 05:31:58;;;;;;;;;;;;;;;9.34;100.00;99270.27;110987;1245;22613;-44
2023/04/05 05:34:26;;;;;;;;;;;;;;;9.43;100.00;99271.39;111417;1245;22521;-51
2023/04/05 05:36:59;;;;;;;;;;;;;;;9.53;100.00;99268.67;110990;1245;24328;-45
2023/04/05 05:39:26;;;;;;;;;;;;;;;9.63;100.00;99267.33;110627;1245;25816;-45
2023/04/05 05:41:55;;;;;;;;;;;;;;;9.72;100.00;99265.13;110659;1245;24152;-46
2023/04/05 05:44:21;;;;;;;;;;;;;;;9.81;100.00;99264.83;111154;1245;22576;-47
2023/04/05 05:46:49;;;;;;;;;;;;;;;9.91;100.00;99262.43;111544;1245;22443;-44
2023/04/05 05:49:16;;;;;;;;;;;;;;;10.02;100.00;99272.73;112191;1245;24182;-45
2023/04/05 05:51:43;;;;;;;;;;;;;;;10.11;100.00;99271.03;113279;1245;22671;-54
2023/04/05 05:54:09;;;;;;;;;;;;;;;10.21;100.00;99260.79;113491;1245;22411;-54
2023/04/05 05:56:36;;;;;;;;;;;;;;;10.33;100.00;99260.45;113412;1245;23086;-54
2023/04/05 05:59:04;;;;;;;;;;;;;;;10.46;100.00;99252.77;112775;1245;25350;-45
2023/04/05 06:01:33;;;;;;;;;;;;;;;10.57;100.00;99247.00;112470;1245;22556;-45
2023/04/05 06:04:00;;;;;;;;;;;;;;;10.68;100.00;99244.20;111372;1245;23255;-54
2023/04/05 06:06:28;;;;;;;;;;;;;;;10.79;100.00;99244.36;112905;1245;24204;-53
2023/04/05 06:08:55;;;;;;;;;;;;;;;10.89;100.00;99237.54;113439;1245;23202;-53
2023/04/05 06:11:23;;;;;;;;;;;;;;;11.00;100.00;99241.00;112278;1245;23183;-54
2023/04/05 06:13:56;;;;;;;;;;;;;;;11.09;100.00;99235.95;111267;1245;22479;-55
2023/04/05 06:16:26;;;;;;;;;;;;;;;11.18;100.00;99237.53;111557;1245;22509;-47
2023/04/05 06:18:54;;;;;;;;;;;;;;;11.26;100.00;99236.33;111380;1245;22485;-54
2023/04/05 06:21:21;;;;;;;;;;;;;;;11.33;100.00;99238.28;112173;1245;22501;-54
2023/04/05 06:23:50;;;;;;;;;;;;;;;11.41;100.00;99235.33;112492;1245;24399;-55
2023/04/05 06:26:17;;;;;;;;;;;;;;;11.51;100.00;99234.09;112218;1245;22528;-55
2023/04/05 06:28:46;;;;;;;;;;;;;;;11.62;100.00;99235.44;110568;1245;296552;-55
2023/04/05 06:31:15;;;;;;;;;;;;;;;11.70;100.00;99234.55;110955;1245;23811;-55
2023/04/05 06:33:42;;;;;;;;;;;;;;;11.80;100.00;99238.02;111322;1245;22533;-54
2023/04/05 06:36:09;;;;;;;;;;;;;;;11.91;100.00;99239.55;111749;1245;23239;-54
2023/04/05 06:38:36;;;;;;;;;;;;;;;12.01;100.00;99234.77;111017;1245;23026;-54
2023/04/05 06:41:03;;;;;;;;;;;;;;;12.10;100.00;99234.77;111662;1245;23154;-46
2023/04/05 06:43:30;;;;;;;;;;;;;;;12.16;100.00;99228.66;112326;1245;25265;-46
2023/04/05 06:45:57;;;;;;;;;;;;;;;12.22;100.00;99221.89;112621;1245;23085;-47
2023/04/05 06:48:24;;;;;;;;;;;;;;;12.23;100.00;99228.52;111384;1245;22496;-45
2023/04/05 06:50:57;;;;;;;;;;;;;;;12.22;100.00;99225.55;112457;1245;23545;-45
2023/04/05 06:53:26;;;;;;;;;;;;;;;12.18;100.00;99219.70;112037;1245;25364;-45
2023/04/05 06:55:56;;;;;;;;;;;;;;;12.15;100.00;99222.20;111294;1245;22496;-44
2023/04/05 06:58:23;;;;;;;;;;;;;;;12.14;100.00;99223.13;110954;1246;26609;-47
2023/04/05 07:00:50;;;;;;;;;;;;;;;12.14;100.00;99219.12;112587;1245;22483;-46
2023/04/05 07:03:25;;;;;;;;;;;;;;;12.15;100.00;99218.72;110629;1245;23396;-46
2023/04/05 07:05:55;;;;;;;;;;;;;;;12.20;100.00;99215.80;110818;1245;22500;-54
2023/04/05 07:08:26;;;;;;;;;;;;;;;12.27;100.00;99213.04;110691;1245;22479;-55
2023/04/05 07:10:53;;;;;;;;;;;;;;;12.31;100.00;99214.67;110141;1245;25292;-54
2023/04/05 07:13:20;;;;;;;;;;;;;;;12.36;100.00;99207.04;111551;1245;23941;-45
2023/04/05 07:15:51;;;;;;;;;;;;;;;12.41;100.00;99202.70;110808;1245;22602;-53
2023/04/05 07:18:18;;;;;;;;;;;;;;;12.49;100.00;99203.73;110689;1245;25418;-44
2023/04/05 07:20:45;;;;;;;;;;;;;;;12.57;100.00;99201.27;110691;1245;25356;-56
2023/04/05 07:23:13;;;;;;;;;;;;;;;12.66;100.00;99196.49;111901;1245;22516;-54
2023/04/05 07:25:40;;;;;;;;;;;;;;;12.74;100.00;99197.14;111333;1245;22501;-46
2023/04/05 07:28:09;;;;;;;;;;;;;;;12.83;100.00;99188.88;111300;1245;23845;-54
2023/04/05 07:30:38;;;;;;;;;;;;;;;12.93;100.00;99183.52;113353;1245;22914;-46
2023/04/05 07:33:08;;;;;;;;;;;;;;;13.02;100.00;99184.16;113364;1245;22406;-55
2023/04/05 07:35:35;;;;;;;;;;;;;;;13.11;99.13;99184.61;111717;1245;22695;-55
2023/04/05 07:38:07;;;;;;;;;;;;;;;13.22;98.30;99179.23;112388;1245;22500;-46
2023/04/05 07:40:34;;;;;;;;;;;;;;;13.38;98.35;99175.11;110803;1245;22514;-55
2023/04/05 07:43:01;;;;;;;;;;;;;;;13.58;98.96;99176.63;111944;1245;26557;-45
2023/04/05 07:45:28;;;;;;;;;;;;;;;13.79;98.67;99185.81;110584;1245;24153;-46
2023/04/05 07:47:54;;;;;;;;;;;;;;;14.03;98.42;99192.79;111181;1245;22477;-55
2023/04/05 07:50:27;;;;;;;;;;;;;;;14.27;97.29;99199.87;111540;1245;22521;-55
2023/04/05 07:52:54;;;;;;;;;;;;;;;14.48;95.84;99199.06;111275;1245;22797;-46
2023/04/05 07:55:20;;;;;;;;;;;;;;;14.64;94.67;99197.66;111396;1245;23046;-55
2023/04/05 07:57:48;;;;;;;;;;;;;;;14.78;93.11;99191.90;113014;1245;22482;-45
2023/04/05 08:00:15;;;;;;;;;;;;;;;14.89;92.48;99196.27;113371;1246;22372;-54
2023/04/05 08:02:47;;;;;;;;;;;;;;;14.99;92.50;99196.80;112012;1245;22496;-54
2023/04/05 08:05:14;;;;;;;;;;;;;;;15.09;92.01;99194.85;113030;1245;22443;-45
2023/04/05 08:07:41;;;;;;;;;;;;;;;15.19;91.77;99195.52;113093;1245;23067;-47
2023/04/05 08:10:09;;;;;;;;;;;;;;;15.24;89.89;99193.60;111114;1245;22511;-56
2023/04/05 08:12:35;;;;;;;;;;;;;;;15.20;89.19;99196.05;110541;1245;22705;-48
2023/04/05 08:15:05;;;;;;;;;;;;;;;15.13;89.08;99192.95;112812;1245;22516;-46
2023/04/05 08:17:32;;;;;;;;;;;;;;;15.10;89.72;99190.45;113393;1245;22464;-45
2023/04/05 08:19:58;;;;;;;;;;;;;;;15.09;89.46;99191.18;113407;1245;22453;-55
2023/04/05 08:22:28;;;;;;;;;;;;;;;15.09;89.60;99188.88;111985;1245;22489;-55
2023/04/05 08:24:55;;;;;;;;;;;;;;;15.14;90.27;99191.52;112053;1245;22677;-54
2023/04/05 08:27:21;;;;;;;;;;;;;;;15.27;90.34;99182.62;110738;1245;26429;-56
2023/04/05 08:29:49;;;;;;;;;;;;;;;15.42;89.69;99180.27;111047;1245;22485;-55
2023/04/05 08:32:15;;;;;;;;;;;;;;;15.59;87.85;99179.14;113056;1245;22515;-46
2023/04/05 08:34:42;;;;;;;;;;;;;;;15.72;87.04;99176.05;112660;1245;22479;-55
2023/04/05 08:37:10;;;;;;;;;;;;;;;15.83;86.24;99170.13;111139;1245;25177;-46
2023/04/05 08:39:36;;;;;;;;;;;;;;;15.93;85.76;99165.88;111440;1245;25439;-54
2023/04/05 08:42:06;;;;;;;;;;;;;;;16.03;85.58;99166.36;111938;1245;22512;-54
2023/04/05 08:44:32;;;;;;;;;;;;;;;16.14;85.41;99162.60;111002;1245;22604;-46
2023/04/05 08:46:59;;;;;;;;;;;;;;;16.25;84.66;99152.12;111300;1245;22476;-46
2023/04/05 08:49:26;;;;;;;;;;;;;;;16.33;83.55;99149.65;111393;1245;24140;-46
2023/04/05 08:51:54;;;;;;;;;;;;;;;16.39;82.56;99152.24;111641;1245;22575;-45
2023/04/05 08:54:21;;;;;;;;;;;;;;;16.45;83.08;99146.34;111490;1245;23209;-55
2023/04/05 08:56:48;;;;;;;;;;;;;;;16.56;82.85;99146.04;112185;1245;22437;-54
2023/04/05 08:59:16;;;;;;;;;;;;;;;16.70;82.46;99144.77;112335;1245;23195;-55
2023/04/05 09:01:43;;;;;;;;;;;;;;;16.81;81.52;99143.09;113186;1245;22460;-55
2023/04/05 09:04:15;;;;;;;;;;;;;;;16.88;81.11;99141.52;113423;1245;22478;-46
2023/04/05 09:06:43;;;;;;;;;;;;;;;16.94;80.75;99142.33;112429;1246;22469;-56
2023/04/05 09:09:09;;;;;;;;;;;;;;;16.96;79.36;99131.11;113083;1245;22449;-47
2023/04/05 09:11:36;;;;;;;;;;;;;;;16.97;78.54;99136.17;111468;1245;22972;-55
2023/04/05 09:14:04;;;;;;;;;;;;;;;17.05;78.74;99132.49;112212;1245;22524;-55
2023/04/05 09:16:38;;;;;;;;;;;;;;;17.16;78.01;99128.45;111496;1245;22520;-49
2023/04/05 09:19:05;;;;;;;;;;;;;;;17.29;77.86;99129.48;112295;1245;24073;-54
2023/04/05 09:21:50;;;;;;;;;;;;;;;17.40;77.88;99128.07;111372;1245;25813;-47
2023/04/05 09:24:28;;;;;;;;;;;;;;;17.53;77.48;99125.00;111229;1245;22482;-55
2023/04/05 09:27:05;;;;;;;;;;;;;;;17.65;77.58;99121.61;113436;1245;23422;-44
2023/04/05 09:29:32;;;;;;;;;;;;;;;17.76;75.56;99120.96;113458;1245;22413;-45
2023/04/05 09:32:01;;;;;;;;;;;;;;;17.82;74.46;99117.84;113371;1245;22852;-54
2023/04/05 09:34:29;;;;;;;;;;;;;;;17.89;74.58;99114.51;112651;1245;22457;-45
2023/04/05 09:36:55;;;;;;;;;;;;;;;17.99;73.92;99114.01;111202;1245;22587;-54
2023/04/05 09:39:29;;;;;;;;;;;;;;;18.08;72.04;99110.21;110469;1245;22557;-55
2023/04/05 09:42:07;;;;;;;;;;;;;;;18.15;70.79;99107.39;111541;1245;22508;-45
2023/04/05 09:44:49;;;;;;;;;;;;;;;18.21;69.64;99108.48;110484;1245;22537;-45
2023/04/05 09:47:18;;;;;;;;;;;;;;;18.27;69.66;99108.55;111682;1245;22582;-56
2023/04/05 09:49:45;;;;;;;;;;;;;;;18.33;69.79;99098.71;111595;1245;22601;-47
2023/04/05 09:52:18;;;;;;;;;;;;;;;18.37;69.32;99102.95;110436;1245;22495;-47
2023/04/05 09:54:45;;;;;;;;;;;;;;;18.36;68.95;99095.92;110704;1245;24117;-46
2023/04/05 09:57:12;;;;;;;;;;;;;;;18.35;68.70;99098.98;110452;1245;22492;-55
2023/04/05 09:59:41;;;;;;;;;;;;;;;18.33;68.63;99094.31;110280;1245;22584;-47
2023/04/05 10:02:09;;;;;;;;;;;;;;;18.33;68.40;99094.88;110784;1245;22511;-47
2023/04/05 10:04:43;;;;;;;;;;;;;;;18.31;67.35;99093.15;110830;1245;25374;-47
2023/04/05 10:07:12;;;;;;;;;;;;;;;18.32;67.09;99093.50;111346;1245;23448;-54
2023/04/05 10:09:39;;;;;;;;;;;;;;;18.38;67.45;99095.31;111039;1245;22483;-55
2023/04/05 10:12:07;;;;;;;;;;;;;;;18.48;66.49;99091.27;112513;1245;22484;-54
2023/04/05 10:14:37;;;;;;;;;;;;;;;18.60;66.58;99087.27;111216;1245;22478;-56
2023/04/05 10:17:09;;;;;;;;;;;;;;;18.80;66.74;99093.34;111222;1245;22485;-44
2023/04/05 10:19:38;;;;;;;;;;;;;;;18.99;65.67;99089.36;112269;1245;22456;-45
2023/04/05 10:22:06;;;;;;;;;;;;;;;19.18;65.34;99088.45;112116;1245;22511;-46
2023/04/05 10:24:35;;;;;;;;;;;;;;;19.44;63.79;99085.30;110627;1245;26553;-47
2023/04/05 10:27:24;;;;;;;;;;;;;;;19.74;62.28;99079.05;111230;1245;22899;-46
2023/04/05 10:30:04;;;;;;;;;;;;;;;20.10;61.27;99076.98;110496;1245;24184;-49
2023/04/05 10:32:34;;;;;;;;;;;;;;;20.34;59.65;99079.79;110344;1245;25336;-47
2023/04/05 10:50:21;;;;;;;23.00;5.80;;;;;;;21.13;58.65;99055.70;106884;1298;557670;-45
2023/04/05 10:52:51;;;;;;;25.90;6.10;;;;;;;21.20;56.81;99054.02;109310;1290;109905;-49
2023/04/05 10:55:20;;;;;;;19.50;4.20;;;;;;;21.21;54.19;99060.11;109497;1290;22392;-53
2023/04/05 10:57:49;;;;;;;29.20;5.00;;;;;;;21.16;53.36;99056.54;109417;1291;22404;-53
2023/04/05 11:00:18;;;;;;;30.40;5.20;;;;;;;21.10;53.96;99062.41;109350;1291;23019;-53
2023/04/05 11:02:48;;;;;;;22.80;4.00;;;;;;;21.08;55.02;99064.02;107528;1291;25473;-46
2023/04/05 11:05:31;;;;;;;15.00;5.50;;;;;;;21.07;56.60;99067.59;107132;1290;22291;-54
2023/04/05 11:08:06;;;;;;;14.90;5.70;;;;;;;20.98;58.35;99071.33;106886;1290;25234;-55
2023/04/05 11:10:36;;;;;;;11.20;6.10;;;;;;;20.74;59.33;99082.76;106808;1279;22524;-53
2023/04/05 11:13:06;;;;;;;25.30;5.30;;;;;;;20.45;58.28;99081.84;108079;1275;24033;-53
2023/04/05 11:15:34;;;;;;;30.40;5.00;;;;;;;20.11;56.04;99079.34;106824;1279;22654;-52
2023/04/05 11:18:10;;;;;;;32.40;5.20;;;;;;;19.88;56.34;99078.61;107310;1279;22540;-47
2023/04/05 11:20:46;;;;;;;18.20;4.40;;;;;;;19.77;56.72;99079.25;107374;1256;22228;-54
2023/04/05 11:23:15;;;;;;;18.30;4.70;;;;;;;19.72;56.61;99080.92;107074;1280;22552;-54
2023/04/05 11:25:50;;;;;;;24.10;4.70;;;;;;;19.73;55.47;99082.12;107042;1279;22529;-47
2023/04/05 11:28:23;;;;;;;22.30;4.50;;;;;;;19.74;55.11;99088.08;106925;1279;25411;-55
2023/04/05 11:30:55;;;;;;;16.10;4.90;;;;;;;19.73;55.22;99085.65;107204;1279;23265;-46
2023/04/05 11:33:38;;;;;;;30.30;5.50;;;;;;;19.72;55.14;99091.20;107293;1279;22677;-47
2023/04/05 11:36:06;;;;;;;20.90;4.70;;;;;;;19.64;54.89;99098.14;107222;1275;22521;-54
2023/04/05 11:38:35;;;;;;;19.40;4.60;;;;;;;19.60;52.71;99099.64;110132;1279;22465;-53
2023/04/05 11:41:11;;;;;;;23.60;3.70;;;;;;;19.60;52.50;99101.02;109663;1279;22524;-44
2023/04/05 11:43:41;;;;;;;14.30;3.90;;;;;;;19.72;52.76;99092.42;109173;1279;22530;-45
2023/04/05 11:46:09;;;;;;;18.70;4.70;;;;;;;19.84;52.90;99091.71;109506;1279;22551;-45
2023/04/05 11:48:39;;;;;;;15.80;3.90;;;;;;;19.88;53.32;99090.08;110151;1278;22230;-46
2023/04/05 11:51:08;;;;;;;17.30;4.70;;;;;;;19.85;53.51;99091.98;107601;1278;22591;-54
2023/04/05 11:53:37;;;;;;;13.60;4.30;;;;;;;19.70;52.74;99091.84;107931;1278;23899;-55
2023/04/05 11:56:08;;;;;;;11.10;3.90;;;;;;;19.49;52.22;99096.88;108459;1278;22397;-54
2023/04/05 11:58:38;;;;;;;12.80;3.70;;;;;;;19.23;53.03;99100.42;107541;1278;23291;-46
2023/04/05 12:01:07;;;;;;;10.60;3.70;;;;;;;19.01;53.37;99098.95;107100;1278;26579;-45
2023/04/05 12:03:36;;;;;;;10.10;3.90;;;;;;;18.81;53.60;99102.46;107499;1278;25834;-45
2023/04/05 12:06:06;;;;;;;11.90;4.10;;;;;;;18.67;54.50;99104.24;106989;1278;22566;-54
2023/04/05 12:08:51;;;;;;;10.10;3.80;;;;;;;18.55;54.90;99103.77;107284;1278;25268;-46
2023/04/05 12:11:28;;;;;;;10.10;4.90;;;;;;;18.43;54.93;99098.25;109684;1278;22211;-44
2023/04/05 12:13:58;;;;;;;20.80;5.20;;;;;;;18.27;55.34;99106.09;107131;1278;22507;-54
2023/04/05 12:16:27;;;;;;;10.00;5.00;;;;;;;18.16;54.65;99104.55;106675;1278;22597;-44
2023/04/05 12:18:57;;;;;;;15.50;4.90;;;;;;;18.08;54.95;99103.35;107265;1256;24100;-45
2023/04/05 12:21:26;;;;;;;18.40;4.70;;;;;;;18.01;55.94;99107.91;106947;1278;22541;-53
2023/04/05 12:23:54;;;;;;;17.80;4.90;;;;;;;17.94;56.53;99108.09;107075;1278;25446;-53
2023/04/05 12:26:22;;;;;;;19.30;5.10;;;;;;;17.87;56.87;99112.30;106939;1278;22524;-51
2023/04/05 12:28:55;;;;;;;12.30;5.20;;;;;;;17.77;56.62;99115.60;106946;1278;25241;-52
2023/04/05 12:31:37;;;;;;;13.10;3.90;;;;;;;17.66;56.42;99119.46;107389;1278;24201;-53
2023/04/05 12:34:06;;;;;;;12.00;4.00;;;;;;;17.54;57.40;99120.19;107170;1279;22526;-46
2023/04/05 12:36:34;;;;;;;18.70;5.00;;;;;;;17.42;58.14;99123.94;107294;1278;22525;-54
2023/04/05 12:39:06;;;;;;;17.30;5.10;;;;;;;17.29;58.43;99122.45;108202;1278;22543;-46
2023/04/05 12:41:35;;;;;;;9.70;5.60;;;;;;;17.15;59.27;99122.21;107878;1278;22443;-52
2023/04/05 12:44:11;;;;;;;23.10;5.00;;;;;;;17.03;60.93;99121.32;108651;1278;22545;-45
